createdAt,value
2023-04-16T00:00:51.831Z,99912.84
2023-04-16T00:03:56.649Z,99918.56
2023-04-16T00:07:01.396Z,99910.16
2023-04-16T00:10:05.304Z,99911.03
2023-04-16T00:13:08.694Z,99913.41
2023-04-16T00:16:11.704Z,99920.13
2023-04-16T00:19:14.685Z,99910.44
2023-04-16T00:22:17.680Z,99911.75
2023-04-16T00:25:22.612Z,99915.56
2023-04-16T00:28:25.925Z,99912.56
2023-04-16T00:31:33.409Z,99919.94
2023-04-16T00:34:36.484Z,99913.09
2023-04-16T00:37:38.777Z,99916.09
2023-04-16T00:40:41.187Z,99917.53
2023-04-16T00:43:44.555Z,99913.25
2023-04-16T00:46:48.298Z,99914.09
2023-04-16T00:49:52.167Z,99910.66
2023-04-16T00:52:55.180Z,99912.63
2023-04-16T00:55:58.761Z,99914.41
2023-04-16T00:59:02.776Z,99901.41
2023-04-16T01:02:06.194Z,99903.28
2023-04-16T01:05:09.386Z,99905.12
2023-04-16T01:08:18.859Z,99907.16
2023-04-16T01:11:22.636Z,99911.34
2023-04-16T01:14:26.534Z,99910.44
2023-04-16T01:17:29.762Z,99912.19
2023-04-16T01:20:37.331Z,99921.62
2023-04-16T01:23:40.523Z,99917.37
2023-04-16T01:26:43.926Z,99920.81
2023-04-16T01:29:47.405Z,99923.00
2023-04-16T01:32:50.967Z,99927.16
2023-04-16T01:35:54.442Z,99930.03
2023-04-16T01:38:57.982Z,99926.19
2023-04-16T01:42:02.084Z,99922.94
2023-04-16T01:45:07.112Z,99924.72
2023-04-16T01:48:11.022Z,99929.03
2023-04-16T01:51:14.728Z,99925.50
2023-04-16T01:54:18.223Z,99928.00
2023-04-16T01:57:21.328Z,99934.88
2023-04-16T02:00:24.731Z,99928.09
2023-04-16T02:03:28.684Z,99920.53
2023-04-16T02:06:33.351Z,99924.44
2023-04-16T02:09:37.085Z,99923.06
2023-04-16T02:12:40.368Z,99933.53
2023-04-16T02:15:48.086Z,99931.69
2023-04-16T02:18:51.977Z,99942.69
2023-04-16T02:21:56.935Z,99952.25
2023-04-16T02:24:59.499Z,99949.84
2023-04-16T02:28:03.111Z,99946.81
2023-04-16T02:31:06.713Z,99945.13
2023-04-16T02:34:10.223Z,99945.53
2023-04-16T02:37:13.227Z,99943.31
2023-04-16T02:40:17.319Z,99949.53
2023-04-16T02:43:21.648Z,99940.81
2023-04-16T02:46:25.290Z,99945.38
2023-04-16T02:49:28.149Z,99937.72
2023-04-16T02:52:33.385Z,99927.06
2023-04-16T02:55:36.781Z,99926.22
2023-04-16T02:58:40.690Z,99927.13
2023-04-16T03:01:47.045Z,99928.28
2023-04-16T03:04:52.407Z,99936.28
2023-04-16T03:07:57.352Z,99948.53
2023-04-16T03:11:01.873Z,99943.62
2023-04-16T03:14:05.823Z,99939.37
2023-04-16T03:17:10.630Z,99943.81
2023-04-16T03:20:15.656Z,99946.84
2023-04-16T03:23:19.877Z,99942.75
2023-04-16T03:26:25.042Z,99949.06
2023-04-16T03:29:30.364Z,99966.66
2023-04-16T03:32:35.435Z,99962.13
2023-04-16T03:35:43.516Z,99970.87
2023-04-16T03:38:49.287Z,99978.28
2023-04-16T03:41:53.186Z,99982.88
2023-04-16T03:44:57.202Z,99987.78
2023-04-16T03:48:00.927Z,99993.44
2023-04-16T03:51:05.793Z,100004.91
2023-04-16T03:54:12.118Z,100010.59
2023-04-16T03:57:17.786Z,100007.50
2023-04-16T04:00:25.677Z,100017.81
2023-04-16T04:03:29.778Z,100007.44
2023-04-16T04:06:38.120Z,100003.47
2023-04-16T04:09:43.567Z,100007.16
2023-04-16T04:12:49.236Z,100008.16
2023-04-16T04:15:55.686Z,100002.97
2023-04-16T04:18:59.691Z,99995.13
2023-04-16T04:22:09.253Z,100006.03
2023-04-16T04:25:15.308Z,100005.56
2023-04-16T04:28:22.497Z,100007.28
2023-04-16T04:31:27.463Z,100021.16
2023-04-16T04:34:32.979Z,100020.22
2023-04-16T04:37:36.800Z,100032.19
2023-04-16T04:40:40.898Z,100036.19
2023-04-16T04:43:47.693Z,100033.06
2023-04-16T04:46:51.089Z,100032.00
2023-04-16T04:49:56.026Z,100038.09
2023-04-16T04:53:00.658Z,100042.41
2023-04-16T04:56:11.622Z,100035.47
2023-04-16T04:59:21.901Z,100034.66
2023-04-16T05:02:28.520Z,100043.13
2023-04-16T05:05:31.881Z,100042.62
2023-04-16T05:08:36.126Z,100042.41
2023-04-16T05:11:40.509Z,100048.84
2023-04-16T05:14:44.648Z,100051.28
2023-04-16T05:17:48.697Z,100047.31
2023-04-16T05:20:52.374Z,100035.84
2023-04-16T05:23:57.808Z,100037.00
2023-04-16T05:27:04.196Z,100053.03
2023-04-16T05:30:09.011Z,100055.44
2023-04-16T05:33:11.991Z,100063.13
2023-04-16T05:36:15.290Z,100067.91
2023-04-16T05:39:19.625Z,100069.88
2023-04-16T05:42:24.375Z,100072.44
2023-04-16T05:45:28.367Z,100072.94
2023-04-16T05:48:39.460Z,100072.84
2023-04-16T05:51:46.550Z,100076.19
2023-04-16T05:54:51.699Z,100075.41
2023-04-16T05:57:56.400Z,100073.25
2023-04-16T06:01:00.211Z,100081.34
2023-04-16T06:04:04.112Z,100087.41
2023-04-16T06:07:08.650Z,100090.84
2023-04-16T06:10:12.816Z,100096.56
2023-04-16T06:13:23.248Z,100094.78
2023-04-16T06:16:30.805Z,100084.50
2023-04-16T06:19:34.660Z,100084.31
2023-04-16T06:22:39.393Z,100096.69
2023-04-16T06:25:42.808Z,100088.06
2023-04-16T06:28:47.831Z,100089.72
2023-04-16T06:31:54.318Z,100092.75
2023-04-16T06:35:00.549Z,100093.91
2023-04-16T06:38:04.049Z,100095.66
2023-04-16T06:41:07.450Z,100089.25
2023-04-16T06:44:12.125Z,100088.78
2023-04-16T06:47:15.032Z,100091.87
2023-04-16T06:50:18.159Z,100096.16
2023-04-16T06:53:23.213Z,100090.59
2023-04-16T06:56:31.210Z,100093.38
2023-04-16T06:59:35.234Z,100087.22
2023-04-16T07:02:43.857Z,100091.56
2023-04-16T07:05:52.472Z,100092.22
2023-04-16T07:08:55.603Z,100099.44
2023-04-16T07:11:58.684Z,100106.53
2023-04-16T07:15:02.289Z,100101.91
2023-04-16T07:18:08.248Z,100107.94
2023-04-16T07:21:12.452Z,100101.50
2023-04-16T07:24:16.254Z,100108.06
2023-04-16T07:27:19.668Z,100104.31
2023-04-16T07:30:22.984Z,100108.59
2023-04-16T07:33:28.954Z,100112.88
2023-04-16T07:36:33.540Z,100120.50
2023-04-16T07:39:37.802Z,100117.50
2023-04-16T07:42:41.772Z,100119.09
2023-04-16T07:45:45.695Z,100112.88
2023-04-16T07:48:50.222Z,100104.97
2023-04-16T07:51:54.432Z,100102.25
2023-04-16T07:54:59.882Z,100105.72
2023-04-16T07:58:08.132Z,100109.66
2023-04-16T08:01:13.247Z,100115.56
2023-04-16T08:04:21.285Z,100115.09
2023-04-16T08:07:25.823Z,100112.56
2023-04-16T08:10:31.778Z,100107.19
2023-04-16T08:13:36.995Z,100102.09
2023-04-16T08:16:43.655Z,100104.09
2023-04-16T08:19:47.824Z,100108.47
2023-04-16T08:22:51.070Z,100120.34
2023-04-16T08:25:55.907Z,100117.69
2023-04-16T08:28:59.823Z,100114.91
2023-04-16T08:32:03.977Z,100115.47
2023-04-16T08:35:07.586Z,100107.94
2023-04-16T08:38:11.386Z,100113.06
2023-04-16T08:41:15.056Z,100120.59
2023-04-16T08:44:22.145Z,100126.44
2023-04-16T08:47:26.281Z,100124.81
2023-04-16T08:50:31.042Z,100127.94
2023-04-16T08:53:40.226Z,100139.03
2023-04-16T08:56:43.464Z,100138.59
2023-04-16T08:59:48.997Z,100143.97
2023-04-16T09:02:52.128Z,100142.22
2023-04-16T09:05:57.729Z,100145.78
2023-04-16T09:09:01.949Z,100146.91
2023-04-16T09:12:08.413Z,100147.47
2023-04-16T09:15:12.068Z,100143.47
2023-04-16T09:18:15.167Z,100150.62
2023-04-16T09:21:18.973Z,100154.78
2023-04-16T09:24:24.415Z,100160.03
2023-04-16T09:27:28.087Z,100152.34
2023-04-16T09:30:32.048Z,100161.22
2023-04-16T09:33:35.401Z,100157.16
2023-04-16T09:36:39.504Z,100167.06
2023-04-16T09:39:43.191Z,100166.19
2023-04-16T09:42:46.417Z,100168.72
2023-04-16T09:45:50.478Z,100170.13
2023-04-16T09:48:53.165Z,100172.31
2023-04-16T09:51:59.343Z,100174.41
2023-04-16T09:55:02.887Z,100168.38
2023-04-16T09:58:06.078Z,100168.44
2023-04-16T10:01:13.156Z,100168.38
2023-04-16T10:04:17.257Z,100166.19
2023-04-16T10:07:21.609Z,100163.78
2023-04-16T10:10:27.444Z,100166.75
2023-04-16T10:13:32.838Z,100161.03
2023-04-16T10:16:35.920Z,100160.59
2023-04-16T10:19:44.724Z,100153.25
2023-04-16T10:22:47.622Z,100157.69
2023-04-16T10:25:51.091Z,100152.97
2023-04-16T10:28:54.366Z,100153.47
2023-04-16T10:31:59.434Z,100151.25
2023-04-16T10:35:02.274Z,100150.19
2023-04-16T10:38:29.119Z,100151.81
2023-04-16T10:41:36.489Z,100144.28
2023-04-16T10:44:45.203Z,100137.84
2023-04-16T10:47:50.524Z,100135.75
2023-04-16T10:51:01.637Z,100131.06
2023-04-16T10:54:13.763Z,100118.75
2023-04-16T10:57:24.308Z,100116.31
2023-04-16T11:00:27.614Z,100118.81
2023-04-16T11:03:34.251Z,100118.53
2023-04-16T11:06:37.993Z,100119.63
2023-04-16T11:09:53.240Z,100118.72
2023-04-16T11:12:58.231Z,100119.66
2023-04-16T11:16:02.463Z,100118.50
2023-04-16T11:19:05.842Z,100121.59
2023-04-16T11:22:12.608Z,100120.31
2023-04-16T11:25:20.742Z,100119.75
2023-04-16T11:28:36.246Z,100121.81
2023-04-16T11:31:39.228Z,100119.13
2023-04-16T11:34:46.608Z,100106.66
2023-04-16T11:37:50.670Z,100113.97
2023-04-16T11:40:55.854Z,100121.38
2023-04-16T11:44:01.807Z,100122.25
2023-04-16T11:47:08.330Z,100112.16
2023-04-16T11:50:26.404Z,100116.78
2023-04-16T11:53:31.542Z,100110.81
2023-04-16T11:56:36.194Z,100112.25
2023-04-16T12:00:01.906Z,100107.03
2023-04-16T12:03:08.013Z,100113.75
2023-04-16T12:06:13.121Z,100103.06
2023-04-16T12:09:26.047Z,100107.06
2023-04-16T12:12:34.334Z,100104.34
2023-04-16T12:15:50.835Z,100096.78
2023-04-16T12:19:00.823Z,100099.03
2023-04-16T12:22:04.497Z,100094.06
2023-04-16T12:25:16.193Z,100102.59
2023-04-16T12:28:32.835Z,100088.22
2023-04-16T12:31:38.792Z,100095.13
2023-04-16T12:34:51.012Z,100088.37
2023-04-16T12:37:54.374Z,100093.31
2023-04-16T12:40:58.754Z,100090.22
2023-04-16T12:44:19.642Z,100086.75
2023-04-16T12:47:23.277Z,100079.28
2023-04-16T12:50:25.914Z,100076.50
2023-04-16T12:53:29.025Z,100079.16
2023-04-16T12:56:33.885Z,100069.56
2023-04-16T12:59:37.633Z,100067.91
2023-04-16T13:02:43.322Z,100073.84
2023-04-16T13:05:46.487Z,100071.22
2023-04-16T13:08:50.292Z,100070.06
2023-04-16T13:11:55.642Z,100067.63
2023-04-16T13:14:59.591Z,100060.81
2023-04-16T13:18:03.620Z,100059.16
2023-04-16T13:21:07.237Z,100056.69
2023-04-16T13:24:12.731Z,100058.34
2023-04-16T13:27:17.866Z,100058.16
2023-04-16T13:30:22.931Z,100054.69
2023-04-16T13:33:26.649Z,100050.09
2023-04-16T13:36:34.153Z,100049.56
2023-04-16T13:39:37.846Z,100041.63
2023-04-16T13:42:43.676Z,100048.41
2023-04-16T13:45:48.846Z,100040.31
2023-04-16T13:48:52.220Z,100035.31
2023-04-16T13:51:57.010Z,100035.31
2023-04-16T13:55:00.457Z,100034.50
2023-04-16T13:58:05.195Z,100031.06
2023-04-16T14:01:08.528Z,100034.84
2023-04-16T14:04:12.496Z,100029.25
2023-04-16T14:07:16.717Z,100035.03
2023-04-16T14:10:21.689Z,100034.19
2023-04-16T14:13:26.203Z,100033.00
2023-04-16T14:16:32.515Z,100030.91
2023-04-16T14:19:35.649Z,100023.81
2023-04-16T14:22:38.840Z,100026.44
2023-04-16T14:25:44.210Z,100028.34
2023-04-16T14:28:48.412Z,100035.03
2023-04-16T14:31:54.097Z,100022.22
2023-04-16T14:34:58.801Z,100022.22
2023-04-16T14:38:02.305Z,100022.00
2023-04-16T14:41:06.414Z,100013.87
2023-04-16T14:44:10.122Z,100023.31
2023-04-16T14:47:14.854Z,100017.97
2023-04-16T14:50:23.373Z,100019.50
2023-04-16T14:53:26.377Z,100010.75
2023-04-16T14:56:29.490Z,100021.75
2023-04-16T14:59:35.220Z,100015.19
2023-04-16T15:02:42.717Z,100005.31
2023-04-16T15:05:55.916Z,100018.28
2023-04-16T15:09:02.116Z,100008.97
2023-04-16T15:12:07.063Z,100010.66
2023-04-16T15:15:10.491Z,100006.69
2023-04-16T15:18:13.526Z,100004.88
2023-04-16T15:21:16.956Z,100005.50
2023-04-16T15:24:21.492Z,100005.84
2023-04-16T15:27:24.871Z,100009.66
2023-04-16T15:30:28.479Z,100007.25
2023-04-16T15:33:31.106Z,99996.47
2023-04-16T15:36:34.571Z,100002.50
2023-04-16T15:39:37.871Z,100009.06
2023-04-16T15:42:44.656Z,100001.62
2023-04-16T15:45:51.240Z,100009.63
2023-04-16T15:48:55.044Z,100005.16
2023-04-16T15:51:59.883Z,100005.78
2023-04-16T15:55:05.250Z,100003.09
2023-04-16T15:58:08.532Z,100003.19
2023-04-16T16:01:15.533Z,100003.03
2023-04-16T16:04:27.296Z,100001.81
2023-04-16T16:07:30.796Z,100006.91
2023-04-16T16:10:34.607Z,100017.09
2023-04-16T16:13:41.506Z,100012.38
2023-04-16T16:16:46.127Z,100011.66
2023-04-16T16:19:49.932Z,100015.84
2023-04-16T16:22:54.665Z,100009.34
2023-04-16T16:26:00.635Z,100014.56
2023-04-16T16:29:07.919Z,100006.31
2023-04-16T16:32:11.853Z,100013.06
2023-04-16T16:35:14.714Z,100018.16
2023-04-16T16:38:20.365Z,100012.59
2023-04-16T16:41:24.682Z,100015.69
2023-04-16T16:44:28.772Z,100017.50
2023-04-16T16:47:33.411Z,100018.69
2023-04-16T16:50:36.432Z,100014.09
2023-04-16T16:53:41.653Z,100012.06
2023-04-16T16:56:45.184Z,100008.94
2023-04-16T16:59:50.253Z,100012.63
2023-04-16T17:02:52.919Z,100023.63
2023-04-16T17:05:55.990Z,100015.34
2023-04-16T17:08:59.042Z,100013.16
2023-04-16T17:12:02.584Z,100018.91
2023-04-16T17:15:07.133Z,100021.47
2023-04-16T17:18:11.240Z,100028.81
2023-04-16T17:21:16.526Z,100027.31
2023-04-16T17:24:22.453Z,100018.91
2023-04-16T17:27:28.410Z,100023.53
2023-04-16T17:30:32.844Z,100030.78
2023-04-16T17:33:40.128Z,100036.22
2023-04-16T17:36:49.174Z,100038.09
2023-04-16T17:39:55.497Z,100039.97
2023-04-16T17:42:59.143Z,100035.44
2023-04-16T17:46:02.673Z,100044.34
2023-04-16T17:49:06.850Z,100041.47
2023-04-16T17:52:10.366Z,100038.75
2023-04-16T17:55:12.848Z,100044.81
2023-04-16T17:58:17.938Z,100042.31
2023-04-16T18:01:23.523Z,100045.66
2023-04-16T18:04:29.278Z,100045.25
2023-04-16T18:07:33.786Z,100057.72
2023-04-16T18:10:37.380Z,100046.12
2023-04-16T18:13:43.685Z,100055.25
2023-04-16T18:16:51.857Z,100061.22
2023-04-16T18:19:55.606Z,100059.44
2023-04-16T18:23:02.069Z,100066.91
2023-04-16T18:26:11.066Z,100066.63
2023-04-16T18:29:24.272Z,100071.63
2023-04-16T18:32:31.137Z,100076.28
2023-04-16T18:35:35.030Z,100079.06
2023-04-16T18:38:49.403Z,100084.72
2023-04-16T18:41:57.522Z,100068.44
2023-04-16T18:45:02.439Z,100058.34
2023-04-16T18:48:05.933Z,100050.87
2023-04-16T18:51:10.370Z,100045.38
2023-04-16T18:54:14.373Z,100048.69
2023-04-16T18:57:17.981Z,100046.19
2023-04-16T19:00:22.660Z,100047.19
2023-04-16T19:03:27.648Z,100039.00
2023-04-16T19:06:33.362Z,100034.47
2023-04-16T19:09:41.320Z,100043.31
2023-04-16T19:12:46.259Z,100036.56
2023-04-16T19:15:49.737Z,100030.69
2023-04-16T19:18:52.104Z,100035.81
2023-04-16T19:21:57.271Z,100033.06
2023-04-16T19:25:05.573Z,100036.63
2023-04-16T19:28:08.790Z,100037.50
2023-04-16T19:31:12.438Z,100039.38
2023-04-16T19:34:17.768Z,100050.44
2023-04-16T19:37:23.185Z,100046.28
2023-04-16T19:40:27.583Z,100036.78
2023-04-16T19:43:32.340Z,100045.59
2023-04-16T19:46:36.364Z,100043.00
2023-04-16T19:49:40.790Z,100044.06
2023-04-16T19:52:43.980Z,100042.56
2023-04-16T19:55:47.702Z,100038.41
2023-04-16T19:58:51.910Z,100041.19
2023-04-16T20:01:56.253Z,100040.75
2023-04-16T20:04:59.330Z,100041.03
2023-04-16T20:08:01.602Z,100036.22
2023-04-16T20:11:04.903Z,100035.78
2023-04-16T20:14:10.348Z,100026.84
2023-04-16T20:17:18.065Z,100032.06
2023-04-16T20:20:24.617Z,100027.66
2023-04-16T20:23:28.241Z,100028.06
2023-04-16T20:26:34.898Z,100029.31
2023-04-16T20:29:43.751Z,100021.84
2023-04-16T20:32:47.155Z,100034.41
2023-04-16T20:35:52.534Z,100030.16
2023-04-16T20:38:56.054Z,100027.78
2023-04-16T20:42:07.482Z,100031.38
2023-04-16T20:45:12.675Z,100032.06
2023-04-16T20:48:18.528Z,100028.62
2023-04-16T20:51:23.052Z,100035.53
2023-04-16T20:54:28.218Z,100018.38
2023-04-16T20:57:32.887Z,100014.81
2023-04-16T21:00:37.675Z,100015.53
2023-04-16T21:03:43.431Z,100007.38
2023-04-16T21:06:49.743Z,100014.97
2023-04-16T21:09:54.171Z,100022.94
2023-04-16T21:12:59.302Z,100014.97
2023-04-16T21:16:06.719Z,100015.91
2023-04-16T21:19:10.794Z,100025.72
2023-04-16T21:22:17.384Z,100015.91
2023-04-16T21:25:21.132Z,100021.72
2023-04-16T21:28:24.679Z,100024.75
2023-04-16T21:31:29.505Z,100011.53
2023-04-16T21:34:35.807Z,100001.84
2023-04-16T21:37:43.808Z,100002.41
2023-04-16T21:40:51.235Z,99997.16
2023-04-16T21:43:54.321Z,99997.31
2023-04-16T21:46:59.640Z,99998.53
2023-04-16T21:50:10.571Z,100011.62
2023-04-16T21:53:15.985Z,99999.78
2023-04-16T21:56:19.367Z,99995.75
2023-04-16T21:59:21.543Z,100000.88
2023-04-16T22:02:27.732Z,99995.91
2023-04-16T22:05:37.338Z,99998.38
2023-04-16T22:08:44.339Z,99996.03
2023-04-16T22:11:48.470Z,99990.50
2023-04-16T22:15:02.276Z,99995.88
2023-04-16T22:18:07.812Z,99990.47
2023-04-16T22:21:16.379Z,99987.16
2023-04-16T22:24:19.116Z,99988.53
2023-04-16T22:27:23.280Z,99984.00
2023-04-16T22:30:29.930Z,99982.88
2023-04-16T22:33:35.581Z,99978.87
2023-04-16T22:36:44.035Z,99975.56
2023-04-16T22:39:49.505Z,99977.06
2023-04-16T22:42:52.043Z,99974.31
2023-04-16T22:46:07.669Z,99971.84
2023-04-16T22:49:13.623Z,99971.97
2023-04-16T22:52:24.087Z,99970.59
2023-04-16T22:55:27.128Z,99976.09
2023-04-16T22:58:35.898Z,99969.34
2023-04-16T23:01:45.959Z,99961.75
2023-04-16T23:04:50.484Z,99963.25
2023-04-16T23:07:54.259Z,99960.78
2023-04-16T23:10:57.905Z,99964.22
2023-04-16T23:14:05.596Z,99960.63
2023-04-16T23:17:14.947Z,99953.88
2023-04-16T23:20:21.133Z,99952.25
2023-04-16T23:23:32.493Z,99948.53
2023-04-16T23:26:37.856Z,99947.81
2023-04-16T23:29:45.331Z,99940.09
2023-04-16T23:32:50.211Z,99936.81
2023-04-16T23:35:56.146Z,99937.63
2023-04-16T23:39:03.888Z,99938.44
2023-04-16T23:42:13.475Z,99936.38
2023-04-16T23:45:18.660Z,99927.41
2023-04-16T23:48:26.424Z,99928.94
2023-04-16T23:51:31.356Z,99928.34
2023-04-16T23:54:41.342Z,99924.09
2023-04-16T23:57:45.748Z,99927.97
